Time;durP1;ratioP1;P1;durP2;ratioP2;P2;SDS_P1;SDS_P2;PMS_P1;PMS_P2;Temp;Humidity;BMP_temperature;BMP_pressure;BME280_temperature;BME280_humidity;BME280_pressure;Samples;Min_cycle;Max_cycle;Signal;HPM_P1;HPM_P2
2022/05/07 00:02:12;;;;;;;19.73;14.03;;;;;;;12.86;80.98;100889.73;2935744;79;20969;-85
2022/05/07 00:06:13;;;;;;;22.95;14.45;;;;;;;12.67;82.03;100890.41;2906578;79;21038;-85
2022/05/07 00:10:15;;;;;;;23.92;13.53;;;;;;;12.53;82.88;100885.33;2931789;79;21018;-85
2022/05/07 00:14:16;;;;;;;22.75;16.10;;;;;;;12.49;83.21;100889.22;2878228;79;21054;-85
2022/05/07 00:18:17;;;;;;;25.05;17.23;;;;;;;12.56;83.36;100890.41;2919968;80;21078;-85
2022/05/07 00:22:18;;;;;;;24.37;15.78;;;;;;;12.64;83.18;100885.31;2891718;80;21033;-85
2022/05/07 00:26:19;;;;;;;27.77;15.60;;;;;;;12.56;83.85;100885.94;2927850;79;21006;-83
2022/05/07 00:30:21;;;;;;;20.95;14.38;;;;;;;12.54;84.28;100885.69;2878770;81;21073;-85
2022/05/07 00:34:24;;;;;;;21.37;13.90;;;;;;;12.53;83.59;100889.33;2870933;82;21022;-84
2022/05/07 00:38:27;;;;;;;25.90;15.72;;;;;;;12.57;83.82;100885.43;2873802;81;21089;-85
2022/05/07 00:42:28;;;;;;;23.90;14.58;;;;;;;12.52;84.58;100879.16;2860932;83;21058;-85
2022/05/07 00:46:29;;;;;;;24.35;14.63;;;;;;;12.48;84.83;100876.85;2826817;83;21011;-85
2022/05/07 00:54:50;;;;;;;20.37;14.23;;;;;;;12.59;84.86;100875.98;2824930;83;21035;-85
2022/05/07 00:58:52;;;;;;;17.50;13.80;;;;;;;12.66;84.64;100875.36;2862592;81;21045;-84
2022/05/07 01:02:53;;;;;;;20.10;13.28;;;;;;;12.78;84.56;100870.00;2856579;81;21082;-84
2022/05/07 01:06:54;;;;;;;29.98;13.03;;;;;;;12.91;83.79;100870.67;2861862;81;21093;-85
2022/05/07 01:10:56;;;;;;;18.95;13.75;;;;;;;12.85;83.48;100860.51;2831577;82;21046;-85
2022/05/07 01:14:59;;;;;;;21.73;15.23;;;;;;;12.75;83.76;100860.41;2846976;83;21038;-84
2022/05/07 01:19:00;;;;;;;19.30;11.48;;;;;;;12.80;84.01;100862.21;2861768;83;21042;-85
2022/05/07 01:23:01;;;;;;;17.98;12.30;;;;;;;12.80;83.71;100858.71;2860594;81;21034;-85
2022/05/07 01:27:02;;;;;;;17.85;12.35;;;;;;;12.77;83.65;100864.28;2858848;81;21017;-85
2022/05/07 01:31:05;;;;;;;21.27;12.82;;;;;;;12.75;83.87;100856.88;2862925;83;21014;-85
2022/05/07 01:35:07;;;;;;;18.55;11.22;;;;;;;12.71;83.97;100857.14;2797440;83;21054;-85
2022/05/07 01:39:08;;;;;;;20.48;12.15;;;;;;;12.73;83.67;100850.83;2848690;82;21098;-85
2022/05/07 01:43:09;;;;;;;19.45;11.95;;;;;;;12.75;83.53;100849.73;2860827;82;21101;-86
2022/05/07 01:51:29;;;;;;;13.68;12.13;;;;;;;12.63;83.01;100856.06;2924121;80;21046;-85
2022/05/07 01:55:33;;;;;;;17.25;12.78;;;;;;;12.64;83.52;100857.77;2895032;81;20967;-86
2022/05/07 01:59:34;;;;;;;20.77;11.03;;;;;;;12.71;83.65;100853.14;2899623;81;21104;-85
2022/05/07 02:03:37;;;;;;;16.20;10.80;;;;;;;12.71;83.39;100860.31;2921238;79;21094;-84
2022/05/07 02:07:38;;;;;;;19.95;11.75;;;;;;;12.74;83.46;100855.19;2917230;80;21046;-85
2022/05/07 02:11:39;;;;;;;16.40;11.10;;;;;;;12.82;83.34;100857.59;2927853;81;20979;-85
2022/05/07 02:15:40;;;;;;;18.35;11.20;;;;;;;12.76;82.94;100855.91;2927488;81;21065;-84
2022/05/07 02:19:41;;;;;;;16.37;11.53;;;;;;;12.70;83.07;100857.28;2919284;81;21609;-85
2022/05/07 02:23:42;;;;;;;11.33;9.85;;;;;;;12.64;83.49;100858.62;2873067;81;21014;-85
2022/05/07 02:27:43;;;;;;;13.98;8.58;;;;;;;12.52;84.16;100856.95;2931607;81;21657;-85
2022/05/07 02:32:03;;;;;;;12.43;11.18;;;;;;;12.54;84.81;100857.66;2916747;81;21863;-85
2022/05/07 02:35:47;;;;;;;20.50;12.05;;;;;;;12.57;85.14;100850.73;2914690;79;21005;-85
2022/05/07 02:39:50;;;;;;;12.55;9.70;;;;;;;12.63;84.57;100862.27;2923782;80;21835;-85
2022/05/07 02:43:51;;;;;;;14.13;10.82;;;;;;;12.52;84.75;100856.95;2917770;79;21027;-85
2022/05/07 02:47:53;;;;;;;17.95;11.38;;;;;;;12.36;84.85;100856.84;2908899;80;30756;-85
2022/05/07 02:51:55;;;;;;;14.83;10.00;;;;;;;12.31;85.19;100860.37;2923221;80;21027;-85
2022/05/07 02:55:56;;;;;;;12.68;11.38;;;;;;;12.39;84.87;100856.63;2912859;80;21023;-85
2022/05/07 02:59:57;;;;;;;16.30;10.63;;;;;;;12.40;84.79;100854.31;2893309;81;20986;-85
2022/05/07 03:03:58;;;;;;;19.00;12.20;;;;;;;12.57;85.17;100860.94;2925791;79;21102;-85
2022/05/07 03:07:59;;;;;;;10.72;8.75;;;;;;;12.77;84.72;100865.61;2853370;81;21542;-85
2022/05/07 03:12:01;;;;;;;13.50;10.08;;;;;;;12.91;84.07;100865.33;2926853;81;21519;-85
2022/05/07 03:16:02;;;;;;;12.78;9.43;;;;;;;12.92;83.67;100864.35;2927922;80;21082;-85
2022/05/07 03:20:09;;;;;;;15.80;11.08;;;;;;;12.99;83.98;100861.55;2919981;81;20990;-84
2022/05/07 03:24:08;;;;;;;13.50;12.07;;;;;;;13.08;82.70;100863.08;2919488;80;21553;-85
2022/05/07 03:28:08;;;;;;;16.27;10.65;;;;;;;13.16;83.18;100859.77;2928690;79;21747;-85
2022/05/07 03:32:10;;;;;;;13.00;9.68;;;;;;;13.28;82.79;100867.59;2915988;81;21680;-84
2022/05/07 03:36:11;;;;;;;13.30;9.18;;;;;;;13.29;81.93;100863.95;2916535;79;21018;-85
2022/05/07 03:40:12;;;;;;;14.55;11.25;;;;;;;13.34;82.04;100859.56;2943039;80;21783;-85
2022/05/07 03:44:13;;;;;;;12.07;10.68;;;;;;;13.29;81.95;100862.62;2931605;80;21031;-85
2022/05/07 03:48:14;;;;;;;12.15;10.03;;;;;;;13.21;82.75;100858.42;2962172;80;21018;-85
2022/05/07 03:56:34;;;;;;;15.28;9.78;;;;;;;12.95;84.09;100861.42;2887374;80;21052;-85
2022/05/07 04:00:35;;;;;;;12.75;9.33;;;;;;;12.92;83.96;100861.69;2949275;80;20991;-85
2022/05/07 04:04:36;;;;;;;14.33;8.90;;;;;;;13.02;84.14;100855.59;2947919;79;21038;-84
2022/05/07 04:08:37;;;;;;;16.67;9.98;;;;;;;13.19;83.87;100859.04;2941517;78;21061;-86
2022/05/07 04:12:48;;;;;;;11.03;8.18;;;;;;;13.36;83.84;100864.76;2937454;78;21695;-85
2022/05/07 04:16:50;;;;;;;11.75;9.18;;;;;;;13.43;83.83;100869.48;2951962;80;21542;-85
2022/05/07 04:20:51;;;;;;;9.93;9.00;;;;;;;13.38;83.75;100874.86;2866971;82;21060;-85
2022/05/07 04:24:52;;;;;;;13.35;8.53;;;;;;;13.35;83.78;100874.61;2861344;82;21698;-84
2022/05/07 04:28:53;;;;;;;9.50;8.55;;;;;;;13.33;84.53;100875.23;2836203;82;21317;-85
2022/05/07 04:32:54;;;;;;;10.88;9.55;;;;;;;13.38;85.02;100874.35;2885528;81;21059;-85
2022/05/07 04:36:56;;;;;;;11.50;8.35;;;;;;;13.43;85.24;100872.16;2871196;81;21062;-85
2022/05/07 04:40:57;;;;;;;12.23;8.00;;;;;;;13.55;84.94;100870.27;2870196;80;21074;-84
2022/05/07 04:44:58;;;;;;;10.93;8.33;;;;;;;13.60;84.33;100869.88;2872000;80;21062;-85
2022/05/07 04:48:59;;;;;;;10.70;8.45;;;;;;;13.84;85.02;100868.27;2861455;82;20999;-85
2022/05/07 04:53:01;;;;;;;9.60;8.68;;;;;;;14.07;84.85;100877.45;2814060;82;21015;-85
2022/05/07 04:57:03;;;;;;;13.75;9.05;;;;;;;14.13;83.31;100874.73;2880720;80;21333;-85
2022/05/07 05:01:04;;;;;;;13.15;8.83;;;;;;;14.12;82.86;100884.56;2889512;81;21066;-85
2022/05/07 05:05:05;;;;;;;18.65;10.85;;;;;;;14.13;83.90;100895.63;2826300;82;21022;-84
2022/05/07 05:09:08;;;;;;;13.75;9.65;;;;;;;14.24;83.42;100896.52;2853587;82;21035;-84
2022/05/07 05:13:09;;;;;;;11.25;10.23;;;;;;;14.36;83.17;100895.93;2834793;82;21087;-85
2022/05/07 05:17:10;;;;;;;9.80;8.60;;;;;;;14.48;82.13;100902.02;2801206;82;20995;-85
2022/05/07 05:21:11;;;;;;;14.05;9.88;;;;;;;14.63;82.95;100903.34;2856057;82;20990;-85
2022/05/07 05:25:12;;;;;;;10.65;9.65;;;;;;;14.77;83.14;100902.63;2847256;82;21019;-85
2022/05/07 05:29:13;;;;;;;13.65;12.05;;;;;;;14.88;82.16;100910.53;2840683;81;21003;-84
2022/05/07 05:33:14;;;;;;;14.05;10.65;;;;;;;15.04;82.25;100908.66;2853792;82;20983;-85
2022/05/07 05:37:16;;;;;;;15.58;11.00;;;;;;;15.20;82.93;100908.09;2824759;82;21049;-85
2022/05/07 05:41:17;;;;;;;15.08;10.65;;;;;;;15.23;82.26;100917.19;2867770;82;21149;-85
2022/05/07 05:45:19;;;;;;;12.45;11.35;;;;;;;15.31;82.73;100916.97;2886675;80;21015;-85
2022/05/07 05:49:20;;;;;;;14.75;11.55;;;;;;;15.39;82.13;100918.46;2927396;80;21082;-85
2022/05/07 05:53:21;;;;;;;12.43;11.28;;;;;;;15.61;83.20;100917.80;2847244;83;21173;-85
2022/05/07 05:57:22;;;;;;;12.93;11.70;;;;;;;15.79;81.49;100920.09;2898553;80;21019;-84
2022/05/07 06:01:23;;;;;;;28.90;13.25;;;;;;;15.85;81.72;100918.68;2837271;82;21078;-85
2022/05/07 06:05:25;;;;;;;15.08;13.13;;;;;;;15.97;82.18;100921.55;2877224;80;21008;-85
2022/05/07 06:09:28;;;;;;;20.12;13.10;;;;;;;16.13;82.17;100924.13;2859111;80;21056;-87
2022/05/07 06:13:33;;;;;;;14.18;12.73;;;;;;;16.32;81.17;100927.25;2833204;82;21038;-86
2022/05/07 06:17:34;;;;;;;13.90;11.67;;;;;;;16.55;81.23;100934.91;2823278;83;21015;-87
2022/05/07 06:21:35;;;;;;;14.80;12.93;;;;;;;16.75;79.91;100934.80;2898189;80;20975;-87
2022/05/07 06:29:56;;;;;;;17.95;13.25;;;;;;;17.00;77.25;100931.92;2818402;83;21651;-86
2022/05/07 06:33:58;;;;;;;16.77;14.13;;;;;;;17.10;76.79;100939.39;2856761;81;21054;-85
2022/05/07 06:37:59;;;;;;;25.27;14.07;;;;;;;17.27;77.73;100939.55;2851366;81;21258;-85
2022/05/07 06:42:00;;;;;;;19.50;15.25;;;;;;;17.40;77.26;100940.50;2847430;83;21051;-83
2022/05/07 06:46:02;;;;;;;19.27;17.37;;;;;;;17.39;76.60;100942.37;2774446;83;21054;-84
2022/05/07 06:50:05;;;;;;;23.83;19.37;;;;;;;17.64;78.59;100945.25;2861655;81;21053;-84
2022/05/07 06:54:06;;;;;;;23.38;19.85;;;;;;;17.88;76.25;100944.22;2862530;82;21020;-85
2022/05/07 06:58:07;;;;;;;24.10;21.73;;;;;;;18.32;79.25;100940.16;2886434;80;21047;-84
2022/05/07 07:02:08;;;;;;;23.45;17.62;;;;;;;18.60;73.39;100947.17;2803836;83;21432;-86
2022/05/07 07:06:09;;;;;;;23.18;20.50;;;;;;;18.76;74.27;100950.42;2916507;80;20984;-86
2022/05/07 07:10:10;;;;;;;23.75;20.27;;;;;;;19.01;74.73;100955.41;2819926;83;21110;-87
2022/05/07 07:14:12;;;;;;;22.20;19.35;;;;;;;19.12;73.19;100954.25;2887321;79;20995;-86
2022/05/07 07:18:13;;;;;;;22.90;20.60;;;;;;;19.12;74.02;100961.82;2832328;82;21047;-87
2022/05/07 07:22:14;;;;;;;23.05;18.25;;;;;;;19.09;71.79;100954.59;2792065;82;21080;-86
2022/05/07 07:26:15;;;;;;;17.50;15.72;;;;;;;19.29;72.28;100958.33;2827438;82;21004;-84
2022/05/07 07:30:16;;;;;;;18.20;14.93;;;;;;;19.49;71.91;100951.59;2842206;83;21062;-86
2022/05/07 07:34:18;;;;;;;24.43;13.43;;;;;;;19.66;70.52;100949.72;2892560;80;20991;-87
2022/05/07 07:38:19;;;;;;;21.87;15.95;;;;;;;19.62;70.00;100951.08;2846352;82;21435;-86
2022/05/07 07:42:23;;;;;;;20.17;12.05;;;;;;;19.92;71.97;100951.41;2862573;80;21070;-85
2022/05/07 07:50:45;;;;;;;17.92;11.30;;;;;;;20.58;66.56;100941.43;2916687;79;21031;-86
2022/05/07 07:54:45;;;;;;;12.25;10.58;;;;;;;20.82;66.52;100944.52;2787165;81;21020;-87
2022/05/07 07:58:46;;;;;;;13.10;10.65;;;;;;;20.85;62.80;100940.14;2923426;79;21062;-85
2022/05/07 08:02:52;;;;;;;12.43;10.82;;;;;;;20.90;64.69;100943.14;2920518;80;21043;-85
2022/05/07 08:15:32;;;;;;;10.68;8.85;;;;;;;21.60;61.86;100939.58;2847147;81;21055;-90
2022/05/07 08:19:34;;;;;;;12.35;9.63;;;;;;;22.20;61.61;100938.32;2922993;80;21059;-87
2022/05/07 08:23:37;;;;;;;16.48;8.08;;;;;;;22.61;60.96;100927.03;2913360;81;21204;-89
2022/05/07 08:27:38;;;;;;;8.58;7.67;;;;;;;22.53;57.82;100932.05;2913651;81;21538;-89
2022/05/07 08:31:39;;;;;;;10.45;8.10;;;;;;;22.62;57.36;100926.50;2917964;80;21059;-90
2022/05/07 08:35:40;;;;;;;7.60;6.47;;;;;;;22.78;58.27;100926.28;2847622;80;21035;-88
2022/05/07 08:39:42;;;;;;;14.10;9.83;;;;;;;22.89;57.64;100927.64;2926748;79;21074;-90
2022/05/07 08:43:43;;;;;;;8.90;7.75;;;;;;;22.95;58.46;100923.33;2957462;80;21078;-89
2022/05/07 08:47:44;;;;;;;17.48;9.68;;;;;;;23.02;56.60;100922.05;2963585;78;21046;-86
2022/05/07 08:51:48;;;;;;;15.88;11.43;;;;;;;23.15;57.97;100918.09;2946569;80;21026;-89
2022/05/07 08:55:56;;;;;;;9.63;7.45;;;;;;;23.31;55.97;100912.97;2894228;80;21030;-89
2022/05/07 08:59:57;;;;;;;8.15;5.70;;;;;;;23.46;57.86;100918.81;2957957;80;20995;-90
2022/05/07 09:04:09;;;;;;;6.17;5.58;;;;;;;23.53;55.27;100917.83;2896914;80;21010;-89
2022/05/07 09:08:11;;;;;;;6.10;5.28;;;;;;;23.61;55.08;100918.21;2934053;79;20999;-88
2022/05/07 09:12:25;;;;;;;7.22;5.30;;;;;;;23.85;53.79;100916.61;2953029;79;21067;-89
2022/05/07 09:16:40;;;;;;;6.22;4.83;;;;;;;23.97;53.59;100913.64;2955411;78;21027;-88
2022/05/07 09:20:41;;;;;;;4.45;3.95;;;;;;;24.15;53.67;100904.16;2942115;79;21039;-87
2022/05/07 09:24:55;;;;;;;16.00;6.87;;;;;;;24.01;48.59;100900.00;2954841;79;21031;-87
2022/05/07 09:28:58;;;;;;;8.98;3.62;;;;;;;24.00;50.91;100900.19;2954124;79;21125;-87
2022/05/07 09:32:59;;;;;;;6.25;5.30;;;;;;;24.04;49.64;100898.77;2963374;80;21042;-88
2022/05/07 09:37:03;;;;;;;3.90;2.60;;;;;;;24.06;51.17;100895.33;2959883;79;21098;-89
2022/05/07 09:41:05;;;;;;;6.22;4.10;;;;;;;24.10;48.10;100896.09;2950457;80;21058;-87
2022/05/07 09:45:07;;;;;;;2.12;1.92;;;;;;;24.16;45.08;100894.96;2921567;81;21137;-86
2022/05/07 09:49:09;;;;;;;2.25;1.52;;;;;;;24.34;47.50;100890.36;2932867;80;21169;-86
2022/05/07 09:57:33;;;;;;;2.40;1.62;;;;;;;24.53;42.62;100884.16;2932469;80;21498;-84
2022/05/07 10:02:03;;;;;;;1.65;1.17;;;;;;;24.41;41.65;100882.23;2931896;80;20999;-87
2022/05/07 10:06:32;;;;;;;3.05;2.15;;;;;;;24.31;43.65;100879.89;2919522;81;21079;-86
2022/05/07 10:10:36;;;;;;;16.87;2.98;;;;;;;24.14;41.21;100876.66;2928232;81;21027;-87
2022/05/07 10:14:37;;;;;;;3.02;1.90;;;;;;;23.93;40.48;100870.25;2928446;80;21030;-84
2022/05/07 10:18:43;;;;;;;3.27;1.75;;;;;;;23.94;41.65;100868.71;2924708;80;21033;-85
2022/05/07 10:22:56;;;;;;;3.02;2.20;;;;;;;23.90;42.81;100866.08;2870653;79;20995;-86
2022/05/07 10:26:57;;;;;;;2.95;2.02;;;;;;;23.97;42.63;100853.87;2927185;80;20979;-85
2022/05/07 10:30:58;;;;;;;15.00;2.52;;;;;;;23.88;42.25;100855.09;2932921;80;21039;-85
2022/05/07 10:34:59;;;;;;;4.03;2.95;;;;;;;23.84;41.58;100860.61;2862394;81;21038;-86
2022/05/07 10:39:09;;;;;;;3.15;1.90;;;;;;;23.89;42.75;100849.47;2927807;81;20982;-85
2022/05/07 10:43:10;;;;;;;2.35;1.57;;;;;;;23.73;41.74;100851.97;2953584;80;22557;-85
2022/05/07 10:47:14;;;;;;;2.58;1.90;;;;;;;23.62;42.04;100846.57;2966856;80;20988;-84
2022/05/07 10:51:53;;;;;;;3.17;2.08;;;;;;;23.58;43.77;100849.88;2937536;80;20994;-85
2022/05/07 10:55:54;;;;;;;1.77;1.42;;;;;;;23.78;43.18;100854.09;2950802;79;21074;-86
2022/05/07 10:59:55;;;;;;;3.35;2.12;;;;;;;24.03;42.85;100841.39;2968655;80;20972;-86
2022/05/07 11:04:07;;;;;;;5.60;2.10;;;;;;;23.93;43.20;100845.81;2957086;78;21030;-85
2022/05/07 11:08:09;;;;;;;9.03;1.90;;;;;;;23.68;46.23;100847.66;2957190;80;21578;-85
2022/05/07 11:12:17;;;;;;;2.90;1.92;;;;;;;23.78;45.96;100846.80;2945703;80;21255;-84
2022/05/07 11:16:22;;;;;;;5.50;2.12;;;;;;;23.80;44.80;100838.43;2820281;81;21012;-86
2022/05/07 11:20:32;;;;;;;6.78;2.42;;;;;;;23.89;44.05;100837.24;2848726;82;21015;-87
2022/05/07 11:24:33;;;;;;;4.17;1.98;;;;;;;24.12;45.10;100832.55;2845832;83;21044;-86
2022/05/07 11:28:35;;;;;;;2.15;1.65;;;;;;;24.27;47.08;100826.45;2856322;82;21085;-86
2022/05/07 11:32:42;;;;;;;9.95;2.98;;;;;;;24.17;42.58;100820.04;2871492;80;21003;-87
2022/05/07 11:36:43;;;;;;;42.62;8.03;;;;;;;24.19;43.99;100819.84;2879464;80;20984;-85
2022/05/07 11:40:45;;;;;;;2.33;1.70;;;;;;;24.13;43.23;100813.34;2871939;82;21293;-87
2022/05/07 11:49:12;;;;;;;5.92;1.92;;;;;;;24.14;44.34;100815.02;2882476;82;21074;-86
2022/05/07 11:53:20;;;;;;;2.70;2.17;;;;;;;24.23;47.72;100816.50;2873143;82;21092;-85
2022/05/07 11:57:29;;;;;;;3.77;2.22;;;;;;;24.38;47.19;100815.50;2874615;82;21042;-86
2022/05/07 12:01:31;;;;;;;5.28;2.50;;;;;;;24.47;45.86;100806.64;2874569;82;21027;-84
2022/05/07 12:05:43;;;;;;;5.22;2.30;;;;;;;24.52;44.37;100801.41;2878559;82;21051;-86
2022/05/07 12:09:45;;;;;;;3.92;1.77;;;;;;;24.57;45.47;100805.73;2878866;82;21043;-85
2022/05/07 12:13:47;;;;;;;1.80;1.42;;;;;;;24.61;43.47;100797.98;2877780;82;21023;-86
2022/05/07 12:17:55;;;;;;;4.35;2.37;;;;;;;24.47;43.52;100793.05;2878514;82;21082;-86
2022/05/07 12:30:35;;;;;;;16.35;4.72;;;;;;;24.47;45.28;100791.69;2884473;82;21107;-86
2022/05/07 12:34:36;;;;;;;17.73;2.25;;;;;;;24.68;45.84;100791.51;2885512;82;21038;-86
2022/05/07 12:38:38;;;;;;;14.50;4.80;;;;;;;24.77;45.05;100787.28;2871565;82;21020;-87
2022/05/07 12:42:39;;;;;;;3.22;2.42;;;;;;;24.81;45.40;100780.37;2874867;82;21028;-86
2022/05/07 12:46:40;;;;;;;5.97;2.15;;;;;;;24.84;46.43;100784.03;2868812;82;20972;-86
2022/05/07 12:50:41;;;;;;;2.55;2.35;;;;;;;24.85;43.66;100775.33;2859975;82;20975;-85
2022/05/07 12:54:42;;;;;;;2.65;1.95;;;;;;;25.00;43.81;100775.95;2869643;82;21012;-85
2022/05/07 12:58:44;;;;;;;8.50;3.12;;;;;;;25.05;43.45;100769.36;2884740;82;21019;-84
2022/05/07 13:02:45;;;;;;;2.98;2.10;;;;;;;25.13;41.57;100763.41;2873863;82;20995;-85
2022/05/07 13:06:46;;;;;;;2.37;2.15;;;;;;;25.16;44.60;100761.11;2863324;82;21086;-85
2022/05/07 13:10:48;;;;;;;2.87;1.92;;;;;;;25.27;45.51;100758.26;2867799;81;21066;-85
2022/05/07 13:14:49;;;;;;;5.67;2.10;;;;;;;25.24;45.76;100756.79;2876785;82;21022;-85
2022/05/07 13:18:51;;;;;;;3.90;1.70;;;;;;;25.23;42.33;100746.09;2860726;82;21003;-84
2022/05/07 13:22:53;;;;;;;3.98;2.08;;;;;;;25.24;43.11;100737.73;2875360;81;21066;-85
2022/05/07 13:26:54;;;;;;;23.05;3.70;;;;;;;25.30;44.85;100744.73;2869067;82;20976;-84
2022/05/07 13:30:58;;;;;;;3.55;2.47;;;;;;;25.37;41.71;100739.58;2879792;81;21031;-85
2022/05/07 13:34:59;;;;;;;2.37;2.17;;;;;;;25.40;42.63;100738.33;2850690;81;21020;-85
2022/05/07 13:39:01;;;;;;;4.90;1.62;;;;;;;25.45;43.38;100730.34;2875461;82;21032;-85
2022/05/07 13:43:02;;;;;;;6.78;2.27;;;;;;;25.52;44.53;100735.27;2829681;82;21016;-86
2022/05/07 13:47:06;;;;;;;7.22;2.55;;;;;;;25.57;44.96;100732.45;2864502;82;21011;-87
2022/05/07 13:51:07;;;;;;;3.37;2.70;;;;;;;25.64;43.66;100727.80;2857167;82;21027;-87
2022/05/07 13:55:10;;;;;;;3.98;2.60;;;;;;;25.62;44.86;100726.64;2871523;82;21043;-87
2022/05/07 13:59:11;;;;;;;3.52;2.08;;;;;;;25.41;40.47;100724.17;2893058;82;21214;-92
2022/05/07 14:03:12;;;;;;;4.90;3.20;;;;;;;25.45;41.75;100718.09;2853875;82;21019;-86
2022/05/07 14:07:14;;;;;;;3.42;2.27;;;;;;;25.55;43.67;100711.37;2850480;83;21137;-87
2022/05/07 14:11:16;;;;;;;3.17;1.75;;;;;;;25.45;43.09;100718.09;2836395;82;21116;-86
2022/05/07 14:15:17;;;;;;;4.12;2.00;;;;;;;25.35;42.86;100714.45;2798724;83;20942;-86
2022/05/07 14:19:18;;;;;;;3.60;1.85;;;;;;;25.35;45.36;100709.52;2858338;82;21027;-86
2022/05/07 14:23:21;;;;;;;3.50;2.15;;;;;;;25.37;43.73;100710.99;2858298;82;21347;-86
2022/05/07 14:27:22;;;;;;;2.12;1.92;;;;;;;25.32;43.91;100709.45;2856415;79;21044;-85
2022/05/07 14:31:23;;;;;;;4.42;2.42;;;;;;;25.26;43.42;100702.66;2862745;83;20991;-86
2022/05/07 14:35:24;;;;;;;5.92;2.55;;;;;;;25.08;41.89;100700.92;2841158;81;21055;-87
2022/05/07 14:39:25;;;;;;;2.52;2.02;;;;;;;25.02;41.60;100703.66;2818961;83;21011;-86
2022/05/07 14:43:26;;;;;;;2.60;2.05;;;;;;;25.07;41.75;100695.17;2824705;82;21098;-87
2022/05/07 14:47:27;;;;;;;8.63;2.47;;;;;;;25.07;41.46;100697.04;2860753;81;21108;-87
2022/05/07 14:51:28;;;;;;;4.62;4.15;;;;;;;25.06;42.52;100694.01;2824790;82;21023;-88
2022/05/07 14:55:30;;;;;;;3.80;3.05;;;;;;;24.92;41.90;100688.58;2877204;81;21055;-87
2022/05/07 14:59:31;;;;;;;3.35;2.75;;;;;;;24.83;43.28;100693.94;2939258;81;21637;-87
2022/05/07 15:03:34;;;;;;;2.90;2.58;;;;;;;24.85;43.24;100689.13;2937325;81;21003;-86
2022/05/07 15:07:37;;;;;;;4.70;1.82;;;;;;;24.80;43.03;100685.67;2939407;80;21019;-84
2022/05/07 15:11:41;;;;;;;2.25;2.00;;;;;;;24.80;45.11;100689.75;2934701;79;21007;-85
2022/05/07 15:15:42;;;;;;;3.98;2.30;;;;;;;24.92;45.78;100685.86;2903981;80;21272;-85
2022/05/07 15:19:43;;;;;;;3.02;1.77;;;;;;;24.89;43.00;100685.47;2933130;81;21008;-85
2022/05/07 15:23:44;;;;;;;3.67;2.25;;;;;;;24.85;43.39;100682.32;2933851;79;21046;-86
2022/05/07 15:27:47;;;;;;;3.87;2.17;;;;;;;24.84;43.96;100680.66;2943398;80;21334;-86
2022/05/07 15:40:28;;;;;;;2.77;1.60;;;;;;;24.89;45.68;100669.14;2937338;80;21590;-84
2022/05/07 15:44:29;;;;;;;2.95;1.72;;;;;;;24.82;45.46;100669.15;2927029;80;21034;-83
2022/05/07 15:48:32;;;;;;;3.20;2.15;;;;;;;24.75;44.77;100659.63;2876783;80;21039;-85
2022/05/07 15:52:34;;;;;;;5.85;2.10;;;;;;;24.69;45.50;100659.09;2926716;80;21060;-84
2022/05/07 15:56:35;;;;;;;2.35;1.60;;;;;;;24.71;43.57;100660.23;2922192;80;21062;-86
2022/05/07 16:00:37;;;;;;;2.62;2.00;;;;;;;24.65;44.36;100660.03;2925040;80;21035;-88
2022/05/07 16:04:38;;;;;;;6.28;3.10;;;;;;;24.56;43.80;100657.19;2921456;81;20932;-84
2022/05/07 16:08:39;;;;;;;2.92;1.80;;;;;;;24.42;43.87;100659.62;2927284;80;21066;-85
2022/05/07 16:12:40;;;;;;;2.70;2.33;;;;;;;24.32;43.82;100651.34;2915350;81;21067;-86
2022/05/07 16:16:41;;;;;;;2.40;2.20;;;;;;;24.22;45.24;100656.38;2902269;80;21080;-86
2022/05/07 16:20:44;;;;;;;12.03;3.60;;;;;;;24.21;45.96;100654.70;2925382;80;21019;-87
2022/05/07 16:24:57;;;;;;;4.00;2.33;;;;;;;24.23;45.29;100648.53;2923408;81;21546;-86
2022/05/07 16:28:58;;;;;;;3.67;2.35;;;;;;;24.17;46.72;100654.77;2926685;80;21597;-85
2022/05/07 16:32:59;;;;;;;5.37;2.60;;;;;;;24.05;46.04;100655.41;2929875;81;21644;-85
2022/05/07 16:37:04;;;;;;;6.47;2.25;;;;;;;23.94;47.22;100650.53;2926615;81;21030;-85
2022/05/07 16:41:05;;;;;;;12.45;2.20;;;;;;;23.77;46.23;100637.32;2922718;80;21019;-86
2022/05/07 16:45:07;;;;;;;2.62;2.08;;;;;;;23.77;46.23;100637.32;2916508;80;21007;-85
2022/05/07 16:49:08;;;;;;;3.47;2.15;;;;;;;23.65;45.48;100640.34;2921331;80;21004;-85
2022/05/07 16:53:10;;;;;;;25.32;4.58;;;;;;;23.51;47.07;100640.28;2930738;81;21114;-87
2022/05/07 16:57:13;;;;;;;4.08;2.15;;;;;;;23.45;47.66;100645.17;2932937;81;21004;-86
2022/05/07 17:01:14;;;;;;;6.37;2.30;;;;;;;23.37;45.52;100636.68;2932218;80;21081;-87
2022/05/07 17:05:15;;;;;;;8.83;2.55;;;;;;;23.29;45.70;100640.09;2914839;80;21429;-85
2022/05/07 17:09:16;;;;;;;4.12;2.40;;;;;;;23.15;46.35;100645.41;2922739;80;21046;-87
2022/05/07 17:13:18;;;;;;;3.47;2.35;;;;;;;23.09;46.80;100642.15;2917625;81;21022;-88
2022/05/07 17:17:19;;;;;;;5.97;2.12;;;;;;;22.95;47.54;100644.77;2931705;80;20999;-87
2022/05/07 17:21:20;;;;;;;11.70;2.83;;;;;;;22.84;47.73;100645.34;2929803;80;20979;-87
2022/05/07 17:25:22;;;;;;;4.80;2.30;;;;;;;22.77;47.67;100643.08;2929681;81;21030;-86
2022/05/07 17:29:23;;;;;;;4.10;2.12;;;;;;;22.68;47.42;100644.60;2930637;81;21035;-87
2022/05/07 17:33:24;;;;;;;2.70;2.33;;;;;;;22.60;47.53;100650.69;2933489;80;21011;-88
2022/05/07 17:37:26;;;;;;;6.58;2.62;;;;;;;22.46;48.13;100652.42;2928725;81;21014;-88
2022/05/07 17:41:27;;;;;;;8.10;2.90;;;;;;;22.32;49.32;100650.95;2926630;76;20999;-87
2022/05/07 17:45:28;;;;;;;28.52;6.03;;;;;;;22.18;49.52;100657.27;2920439;80;21010;-88
2022/05/07 17:49:30;;;;;;;21.25;4.92;;;;;;;22.06;49.88;100662.37;2925640;81;21058;-86
2022/05/07 17:53:31;;;;;;;22.07;4.75;;;;;;;21.88;50.64;100662.28;2921192;80;21018;-86
2022/05/07 17:57:32;;;;;;;12.55;5.40;;;;;;;21.70;51.04;100661.37;2784684;83;21046;-86
2022/05/07 18:01:36;;;;;;;21.60;7.72;;;;;;;21.52;51.57;100669.88;2756506;84;21094;-88
2022/05/07 18:05:38;;;;;;;18.77;7.95;;;;;;;21.34;51.86;100664.84;2833429;83;21090;-84
2022/05/07 18:09:39;;;;;;;10.23;8.08;;;;;;;21.14;52.56;100670.81;2887900;81;21019;-86
2022/05/07 18:13:40;;;;;;;20.97;12.43;;;;;;;20.93;53.19;100679.15;2788304;83;21078;-84
2022/05/07 18:17:43;;;;;;;25.15;15.48;;;;;;;20.71;54.29;100681.37;2785359;83;21147;-84
2022/05/07 18:21:45;;;;;;;20.15;14.50;;;;;;;20.44;55.42;100684.95;2818242;83;20983;-85
2022/05/07 18:25:46;;;;;;;17.73;11.78;;;;;;;20.19;55.70;100695.46;2884037;81;21046;-86
2022/05/07 18:29:47;;;;;;;17.17;10.15;;;;;;;20.00;56.35;100696.75;2914980;80;21042;-86
2022/05/07 18:33:53;;;;;;;25.20;19.07;;;;;;;19.75;56.88;100695.51;2916295;80;21006;-87
2022/05/07 18:46:33;;;;;;;17.00;13.88;;;;;;;19.12;57.39;100704.84;2822637;82;21094;-87
2022/05/07 18:50:34;;;;;;;24.82;13.58;;;;;;;18.88;58.03;100706.55;2834996;82;21165;-87
2022/05/07 18:54:35;;;;;;;34.35;15.90;;;;;;;18.66;57.99;100712.94;2834501;82;21043;-86
2022/05/07 18:58:39;;;;;;;19.50;13.53;;;;;;;18.50;58.60;100712.44;2813604;83;21027;-88
2022/05/07 19:02:40;;;;;;;15.68;10.98;;;;;;;18.33;58.85;100718.33;2835669;82;21063;-88
2022/05/07 19:06:41;;;;;;;15.83;10.53;;;;;;;18.13;59.81;100714.59;2832009;82;21082;-86
2022/05/07 19:10:42;;;;;;;11.20;8.88;;;;;;;18.00;59.96;100724.95;2831185;82;21000;-87
2022/05/07 19:14:47;;;;;;;16.12;10.13;;;;;;;17.87;60.39;100727.25;2781238;83;21062;-89
2022/05/07 19:18:46;;;;;;;13.88;9.30;;;;;;;17.77;60.13;100730.94;2827983;83;21000;-88
2022/05/07 19:22:47;;;;;;;106.72;22.07;;;;;;;17.59;60.79;100730.19;2818724;82;21621;-87
2022/05/07 19:26:48;;;;;;;95.67;23.92;;;;;;;17.44;61.58;100737.50;2852014;81;21041;-87
2022/05/07 19:30:51;;;;;;;53.52;19.35;;;;;;;17.30;61.93;100737.59;2845544;83;21070;-87
2022/05/07 19:34:52;;;;;;;19.90;13.53;;;;;;;17.17;62.04;100739.38;2879006;81;21045;-85
2022/05/07 19:38:53;;;;;;;21.30;12.20;;;;;;;16.97;63.21;100744.91;2855673;82;21059;-86